Eastern, KY (41622)

11:27 PM EDT on May 05, 2015 (GMT -0400)
Middle Creek VFD Station 2 | | Change Station
CLOSE
Current Station
Personal Weather Station
Location: Prestonsburg, KY
Elevation: 689 ft
Nearby Weather Stations

Elev 689 ft 37.64 °N, 82.85 °W | Updated 12 minutes ago

Clear
Clear
60.4 °F
Feels Like 60.4 °F
N
0.0
Wind Variable Wind from North

Today
High -- | Low -- °F
--% Chance of Precip.
Yesterday
High -- | Low -- °F
Precip. -- in
6:31 AM 8:24 PM
Waning Gibbous, 96% visible
Pressure 30.24 in
Visibility 10.0 miles
Clouds Clear
Dew Point 57 °F
Humidity 88%
Rainfall 0.00 in
Snow Depth Not available.
UV 0 out of 12
Pollen 9.40 out of 12
Air Quality Not available.
Flu Activity Sporadic
METAR KSJS 060315Z AUTO 00000KT 10SM CLR 21/13 A3024 RMK AO2 T02120125

More Conditions Fewer Conditions

Pressure 30.24 in
Visibility 10.0 miles
Clouds Clear
Dew Point 57 °F
Humidity 88%
Rainfall 0.00 in
Snow Depth Not available.
UV 0 out of 12
Pollen 9.40 out of 12
Air Quality Not available.
Flu Activity Sporadic
METAR KSJS 060315Z AUTO 00000KT 10SM CLR 21/13 A3024 RMK AO2 T02120125

More Conditions Fewer Conditions

10-Day Weather Forecast

Almanac

Astronomy

May. 05, 2015 Rise Set
Actual Time
Civil Twilight
Nautical Twilight
Astronomical Twilight
Moon
Length of Visible Light
Length of Day
Tomorrow will be .
, % of the Moon is Illuminated

Today's Extremes

State Highs State Lows

Community

WunderPhotos

Upload Photos

1,819,061 photos uploaded!

WunderBlogs® & News

Nearby

Air Quality

  Air Quality AQ Index Pollutant
Not available.

Snow Depth

Station Depth Elevation

Earthquake Activity

City Distance Mag. Time & Date
Minimum magnitude displayed is 2.5.

Coastal Water Temperatures

Place Temperature

Stations

Nearby Weather Stations

Station Location Temp. Windchill Dew Point Humidity Wind Precip. Elev Updated Type